Terminal Aerodrome Forecast
Issued by NWS

Home | Current Version | Previous Version | Graphics & Text | Print | Product List | Glossary Off
Versions: 1 2 3 4 5 6 7 8 9 10 11 12 13 14 15 16 17 18 19 20 21 22 23 24 25 26 27 28 29 30 31 32 33 34 35 36 37 38 39 40

000
FTUS43 KDDC 291212 AAA
TAFHYS
TAF AMD
KHYS 291212Z 2912/3012 07019G26KT P6SM SCT006 OVC080
     FM291500 06017G27KT 3SM RA OVC003
     FM300000 05015G25KT 2SM RA OVC003
     FM300600 03010G20KT 4SM -SHRA OVC003
     FM300900 03010KT 5SM -SHRA OVC003=

USA.gov is the U.S. government's official web portal to all federal, state and local government web resources and services.